createdAt,value
2019-05-01T00:00:34.399Z,29.60
2019-05-01T00:03:07.154Z,29.60
2019-05-01T00:05:39.369Z,29.70
2019-05-01T00:08:10.806Z,29.70
2019-05-01T00:10:42.131Z,29.70
2019-05-01T00:13:13.336Z,29.80
2019-05-01T00:15:44.525Z,29.90
2019-05-01T00:18:15.744Z,30.00
2019-05-01T00:20:46.794Z,30.10
2019-05-01T00:23:17.635Z,30.10
2019-05-01T00:25:48.484Z,30.20
2019-05-01T00:28:19.502Z,30.30
2019-05-01T00:30:50.279Z,30.40
2019-05-01T00:33:21.364Z,30.50
2019-05-01T00:35:52.318Z,30.50
2019-05-01T00:38:23.042Z,30.70
2019-05-01T00:40:54.172Z,30.70
2019-05-01T00:43:25.115Z,30.90
2019-05-01T00:45:56.054Z,31.00
2019-05-01T00:48:27.325Z,31.10
2019-05-01T00:50:58.052Z,31.20
2019-05-01T00:53:28.833Z,31.30
2019-05-01T00:56:01.265Z,31.40
2019-05-01T00:58:31.961Z,31.50
2019-05-01T01:01:04.282Z,31.60
2019-05-01T01:03:35.366Z,31.70
2019-05-01T01:06:06.520Z,31.80
2019-05-01T01:08:37.533Z,31.90
2019-05-01T01:11:08.787Z,32.10
2019-05-01T01:13:39.557Z,32.30
2019-05-01T01:16:12.936Z,32.40
2019-05-01T01:18:43.924Z,32.50
2019-05-01T01:21:14.729Z,32.70
2019-05-01T01:23:46.252Z,32.80
2019-05-01T01:26:17.365Z,33.00
2019-05-01T01:28:48.255Z,33.20
2019-05-01T01:31:19.072Z,33.40
2019-05-01T01:33:50.220Z,33.50
2019-05-01T01:36:21.087Z,33.70
2019-05-01T01:38:52.048Z,33.70
2019-05-01T01:41:23.419Z,33.90
2019-05-01T01:43:55.602Z,34.00
2019-05-01T01:46:28.003Z,34.10
2019-05-01T01:48:59.169Z,34.10
2019-05-01T01:51:30.853Z,34.20
2019-05-01T01:54:02.512Z,34.20
2019-05-01T01:56:33.424Z,34.30
2019-05-01T01:59:04.231Z,34.30
2019-05-01T02:01:36.799Z,34.30
2019-05-01T02:04:08.416Z,34.30
2019-05-01T02:06:39.247Z,34.40
2019-05-01T02:09:11.207Z,34.50
2019-05-01T02:11:41.980Z,34.60
2019-05-01T02:14:12.872Z,34.60
2019-05-01T02:16:45.070Z,34.70
2019-05-01T02:19:15.998Z,34.80
2019-05-01T02:21:46.841Z,34.90
2019-05-01T02:24:18.091Z,34.90
2019-05-01T02:26:50.431Z,34.90
2019-05-01T02:29:22.838Z,34.90
2019-05-01T02:31:59.178Z,35.00
2019-05-01T02:34:30.741Z,35.00
2019-05-01T02:37:03.610Z,35.00
2019-05-01T02:39:36.298Z,35.00
2019-05-01T02:42:08.676Z,35.10
2019-05-01T02:44:41.939Z,35.20
2019-05-01T02:47:15.141Z,35.20
2019-05-01T02:49:46.156Z,35.40
2019-05-01T02:52:17.571Z,35.50
2019-05-01T02:54:50.356Z,35.60
2019-05-01T02:57:23.748Z,35.70
2019-05-01T02:59:55.958Z,35.90
2019-05-01T03:02:29.017Z,36.00
2019-05-01T03:04:59.195Z,36.10
2019-05-01T03:07:32.869Z,36.20
2019-05-01T03:10:08.924Z,36.20
2019-05-01T03:12:40.196Z,36.30
2019-05-01T03:15:12.497Z,36.40
2019-05-01T03:17:45.497Z,36.40
2019-05-01T03:20:18.854Z,36.60
2019-05-01T03:22:51.078Z,36.60
2019-05-01T03:25:22.105Z,36.70
2019-05-01T03:27:53.427Z,36.80
2019-05-01T03:30:24.378Z,37.00
2019-05-01T03:32:55.372Z,37.10
2019-05-01T03:35:26.494Z,37.20
2019-05-01T03:37:57.253Z,37.30
2019-05-01T03:40:28.337Z,37.40
2019-05-01T03:42:59.843Z,37.50
2019-05-01T03:45:34.092Z,37.50
2019-05-01T03:48:03.254Z,37.60
2019-05-01T03:50:34.559Z,37.80
2019-05-01T03:53:05.842Z,37.90
2019-05-01T03:55:36.940Z,38.00
2019-05-01T03:58:08.051Z,38.10
2019-05-01T04:00:39.232Z,38.30
2019-05-01T04:03:11.691Z,38.40
2019-05-01T04:05:42.998Z,38.40
2019-05-01T04:08:13.967Z,38.50
2019-05-01T04:10:44.844Z,38.60
2019-05-01T04:13:16.087Z,38.70
2019-05-01T04:15:47.337Z,38.80
2019-05-01T04:18:18.420Z,38.80
2019-05-01T04:20:49.349Z,38.90
2019-05-01T04:23:21.071Z,39.00
2019-05-01T04:25:53.140Z,39.00
2019-05-01T04:28:26.555Z,39.10
2019-05-01T04:30:59.491Z,39.30
2019-05-01T04:33:30.610Z,39.40
2019-05-01T04:36:03.309Z,39.50
2019-05-01T04:38:34.268Z,39.70
2019-05-01T04:41:05.704Z,39.90
2019-05-01T04:43:37.161Z,40.00
2019-05-01T04:46:08.621Z,40.10
2019-05-01T04:48:39.625Z,40.30
2019-05-01T04:51:11.230Z,40.40
2019-05-01T04:53:42.007Z,40.50
2019-05-01T04:56:13.183Z,40.50
2019-05-01T04:58:45.180Z,40.60
2019-05-01T05:01:16.742Z,40.60
2019-05-01T05:03:48.516Z,40.70
2019-05-01T05:06:19.796Z,40.80
2019-05-01T05:08:51.171Z,40.80
2019-05-01T05:11:24.128Z,40.80
2019-05-01T05:13:56.434Z,40.80
2019-05-01T05:16:28.954Z,40.70
2019-05-01T05:19:00.257Z,40.70
2019-05-01T05:21:31.461Z,40.70
2019-05-01T05:24:03.242Z,40.70
2019-05-01T05:26:34.590Z,40.60
2019-05-01T05:29:06.346Z,40.60
2019-05-01T05:31:38.055Z,40.70
2019-05-01T05:34:11.555Z,40.70
2019-05-01T05:36:44.423Z,40.80
2019-05-01T05:39:19.050Z,40.90
2019-05-01T05:41:52.482Z,41.00
2019-05-01T05:44:24.057Z,41.10
2019-05-01T05:46:55.143Z,41.20
2019-05-01T05:49:26.450Z,41.20
2019-05-01T05:52:00.445Z,41.30
2019-05-01T05:54:34.282Z,41.30
2019-05-01T05:57:08.825Z,41.30
2019-05-01T05:59:43.280Z,41.40
2019-05-01T06:02:17.183Z,41.60
2019-05-01T06:04:50.734Z,41.60
2019-05-01T06:07:25.438Z,41.80
2019-05-01T06:09:58.365Z,41.80
2019-05-01T06:12:31.116Z,41.90
2019-05-01T06:15:06.368Z,41.90
2019-05-01T06:17:33.670Z,42.00
2019-05-01T06:20:07.098Z,42.10
2019-05-01T06:22:40.767Z,42.10
2019-05-01T06:25:21.264Z,42.20
2019-05-01T06:27:49.292Z,42.30
2019-05-01T06:30:18.825Z,42.40
2019-05-01T06:32:49.881Z,42.40
2019-05-01T06:35:21.002Z,42.40
2019-05-01T06:37:56.063Z,42.50
2019-05-01T06:40:28.220Z,42.50
2019-05-01T06:42:58.997Z,42.60
2019-05-01T06:45:30.634Z,42.70
2019-05-01T06:48:02.992Z,42.50
2019-05-01T06:50:37.029Z,42.40
2019-05-01T06:53:07.826Z,42.20
2019-05-01T06:55:39.741Z,42.20
2019-05-01T06:58:10.448Z,42.10
2019-05-01T07:00:43.097Z,42.10
2019-05-01T07:03:14.876Z,42.00
2019-05-01T07:05:49.145Z,41.90
2019-05-01T07:08:24.832Z,41.80
2019-05-01T07:10:51.251Z,41.80
2019-05-01T07:13:21.914Z,41.80
2019-05-01T07:15:52.750Z,42.00
2019-05-01T07:18:28.821Z,42.10
2019-05-01T07:20:55.210Z,42.10
2019-05-01T07:23:26.395Z,42.10
2019-05-01T07:25:57.368Z,42.10
2019-05-01T07:28:34.071Z,42.20
2019-05-01T07:31:05.160Z,42.20
2019-05-01T07:33:35.647Z,42.10
2019-05-01T07:36:14.971Z,42.10
2019-05-01T07:38:41.258Z,42.10
2019-05-01T07:41:12.521Z,42.10
2019-05-01T07:43:45.519Z,42.20
2019-05-01T07:46:19.481Z,42.20
2019-05-01T07:48:50.863Z,42.20
2019-05-01T07:51:22.220Z,42.30
2019-05-01T07:53:53.187Z,42.30
2019-05-01T07:56:28.157Z,42.40
2019-05-01T07:58:56.504Z,42.50
2019-05-01T08:01:28.754Z,42.60
2019-05-01T08:03:59.561Z,42.70
2019-05-01T08:06:30.762Z,42.80
2019-05-01T08:09:01.820Z,42.80
2019-05-01T08:11:32.683Z,42.90
2019-05-01T08:14:07.588Z,42.90
2019-05-01T08:16:37.887Z,43.00
2019-05-01T08:19:09.458Z,42.90
2019-05-01T08:21:41.580Z,42.70
2019-05-01T08:24:12.415Z,42.60
2019-05-01T08:26:44.314Z,42.50
2019-05-01T08:29:16.478Z,42.40
2019-05-01T08:31:49.003Z,42.30
2019-05-01T08:34:20.680Z,42.30
2019-05-01T08:36:52.544Z,42.20
2019-05-01T08:39:23.385Z,42.20
2019-05-01T08:41:54.269Z,42.20
2019-05-01T08:44:29.594Z,42.30
2019-05-01T08:46:58.408Z,42.30
2019-05-01T08:49:30.752Z,42.30
2019-05-01T08:52:04.828Z,42.30
2019-05-01T08:54:34.842Z,42.20
2019-05-01T08:57:07.943Z,42.10
2019-05-01T08:59:38.372Z,42.00
2019-05-01T09:02:09.937Z,41.90
2019-05-01T09:04:41.116Z,41.80
2019-05-01T09:07:14.654Z,41.80
2019-05-01T09:09:45.538Z,41.80
2019-05-01T09:12:17.002Z,41.70
2019-05-01T09:14:50.882Z,41.70
2019-05-01T09:17:20.135Z,41.70
2019-05-01T09:19:51.296Z,41.60
2019-05-01T09:22:22.271Z,41.50
2019-05-01T09:24:53.851Z,41.50
2019-05-01T09:27:29.590Z,41.40
2019-05-01T09:29:59.893Z,41.40
2019-05-01T09:32:31.688Z,41.30
2019-05-01T09:35:14.585Z,41.20
2019-05-01T09:37:34.907Z,41.10
2019-05-01T09:40:09.405Z,41.00
2019-05-01T09:42:41.415Z,41.00
2019-05-01T09:45:13.751Z,40.90
2019-05-01T09:47:44.888Z,40.80
2019-05-01T09:50:17.247Z,40.80
2019-05-01T09:52:49.641Z,40.70
2019-05-01T09:55:23.179Z,40.70
2019-05-01T09:57:54.454Z,40.70
2019-05-01T10:00:26.939Z,40.50
2019-05-01T10:02:57.948Z,40.50
2019-05-01T10:05:29.362Z,40.40
2019-05-01T10:08:04.383Z,40.30
2019-05-01T10:10:32.386Z,40.20
2019-05-01T10:13:03.629Z,40.20
2019-05-01T10:15:34.655Z,40.00
2019-05-01T10:18:08.106Z,40.00
2019-05-01T10:20:39.350Z,40.00
2019-05-01T10:23:12.924Z,39.80
2019-05-01T10:25:47.966Z,39.70
2019-05-01T10:28:18.184Z,39.60
2019-05-01T10:30:50.410Z,39.50
2019-05-01T10:33:22.846Z,39.40
2019-05-01T10:35:55.111Z,39.30
2019-05-01T10:38:26.035Z,39.20
2019-05-01T10:40:57.083Z,39.20
2019-05-01T10:43:27.890Z,39.10
2019-05-01T10:45:58.849Z,39.00
2019-05-01T10:48:30.193Z,38.90
2019-05-01T10:51:00.818Z,38.80
2019-05-01T10:53:31.587Z,38.80
2019-05-01T10:56:02.684Z,38.60
2019-05-01T10:58:33.516Z,38.60
2019-05-01T11:01:05.709Z,38.50
2019-05-01T11:03:36.966Z,38.40
2019-05-01T11:06:07.742Z,38.30
2019-05-01T11:08:38.937Z,38.30
2019-05-01T11:11:09.752Z,38.20
2019-05-01T11:13:40.601Z,38.00
2019-05-01T11:16:11.417Z,37.90
2019-05-01T11:18:42.308Z,37.80
2019-05-01T11:21:13.253Z,37.70
2019-05-01T11:23:44.131Z,37.60
2019-05-01T11:26:15.422Z,37.50
2019-05-01T11:28:46.527Z,37.30
2019-05-01T11:31:18.676Z,37.20
2019-05-01T11:33:50.855Z,37.10
2019-05-01T11:36:22.960Z,37.00
2019-05-01T11:38:55.132Z,36.90
2019-05-01T11:41:27.977Z,36.80
2019-05-01T11:44:01.687Z,36.70
2019-05-01T11:46:32.595Z,36.60
2019-05-01T11:49:03.730Z,36.50
2019-05-01T11:51:34.457Z,36.40
2019-05-01T11:54:05.856Z,36.30
2019-05-01T11:56:37.107Z,36.20
2019-05-01T11:59:07.801Z,36.10
2019-05-01T12:01:38.831Z,36.00
2019-05-01T12:04:09.864Z,35.90
2019-05-01T12:06:41.173Z,35.90
2019-05-01T12:09:12.286Z,35.80
2019-05-01T12:11:44.563Z,35.70
2019-05-01T12:14:15.449Z,35.60
2019-05-01T12:16:47.553Z,35.50
2019-05-01T12:19:18.722Z,35.40
2019-05-01T12:21:49.676Z,35.40
2019-05-01T12:24:21.628Z,35.30
2019-05-01T12:26:52.711Z,35.30
2019-05-01T12:29:23.685Z,35.10
2019-05-01T12:31:54.726Z,35.10
2019-05-01T12:34:25.943Z,35.10
2019-05-01T12:36:58.210Z,35.00
2019-05-01T12:39:29.193Z,34.90
2019-05-01T12:42:01.696Z,34.90
2019-05-01T12:44:33.485Z,34.80
2019-05-01T12:47:05.701Z,34.70
2019-05-01T12:49:36.801Z,34.60
2019-05-01T12:52:10.624Z,34.50
2019-05-01T12:54:42.667Z,34.50
2019-05-01T12:57:14.117Z,34.40
2019-05-01T12:59:44.998Z,34.30
2019-05-01T13:02:18.865Z,34.20
2019-05-01T13:04:49.917Z,34.20
2019-05-01T13:07:21.195Z,34.20
2019-05-01T13:09:52.154Z,34.10
2019-05-01T13:12:22.935Z,34.00
2019-05-01T13:14:54.203Z,34.00
2019-05-01T13:17:25.175Z,33.90
